createdAt,value
2018-09-27T00:02:05.742Z,5.33
2018-09-27T00:04:33.906Z,4.60
2018-09-27T00:07:02.630Z,8.53
2018-09-27T00:09:31.473Z,6.57
2018-09-27T00:11:59.974Z,7.90
2018-09-27T00:14:28.155Z,4.03
2018-09-27T00:16:56.326Z,5.40
2018-09-27T00:19:24.595Z,3.50
2018-09-27T00:22:01.488Z,6.27
2018-09-27T00:24:29.657Z,3.73
2018-09-27T00:26:57.876Z,7.43
2018-09-27T00:29:26.090Z,9.70
2018-09-27T00:31:54.250Z,5.40
2018-09-27T00:34:22.462Z,5.83
2018-09-27T00:36:50.658Z,5.00
2018-09-27T00:39:18.886Z,5.13
2018-09-27T00:41:47.447Z,4.77
2018-09-27T00:44:16.162Z,4.37
2018-09-27T00:46:44.374Z,3.30
2018-09-27T00:49:13.055Z,6.03
2018-09-27T00:54:17.343Z,4.97
2018-09-27T00:56:45.810Z,9.03
2018-09-27T00:59:14.072Z,5.90
2018-09-27T01:01:42.358Z,7.37
2018-09-27T01:04:10.962Z,5.00
2018-09-27T01:06:39.678Z,3.93
2018-09-27T01:09:08.950Z,5.57
2018-09-27T01:11:37.167Z,7.93
2018-09-27T01:14:05.821Z,6.77
2018-09-27T01:16:34.005Z,4.50
2018-09-27T01:19:02.146Z,7.73
2018-09-27T01:21:30.578Z,7.53
2018-09-27T01:23:58.930Z,4.20
2018-09-27T01:26:27.120Z,7.57
2018-09-27T01:28:55.310Z,3.90
2018-09-27T01:31:23.530Z,4.93
2018-09-27T01:33:52.330Z,6.80
2018-09-27T01:36:20.646Z,6.23
2018-09-27T01:38:49.287Z,6.70
2018-09-27T01:41:17.521Z,4.90
2018-09-27T01:43:45.687Z,7.10
2018-09-27T01:46:18.790Z,5.23
2018-09-27T01:48:46.974Z,5.70
2018-09-27T01:51:15.158Z,9.93
2018-09-27T01:53:43.358Z,9.77
2018-09-27T01:56:11.865Z,4.17
2018-09-27T01:58:40.086Z,5.53
2018-09-27T02:01:08.387Z,3.83
2018-09-27T02:03:36.556Z,4.53
2018-09-27T02:06:04.754Z,7.80
2018-09-27T02:08:32.978Z,5.63
2018-09-27T02:11:01.279Z,3.73
2018-09-27T02:13:30.425Z,5.27
2018-09-27T02:15:58.899Z,7.57
2018-09-27T02:18:27.088Z,4.83
2018-09-27T02:20:55.505Z,2.80
2018-09-27T02:23:23.694Z,3.40
2018-09-27T02:25:51.835Z,3.67
2018-09-27T02:28:20.011Z,5.00
2018-09-27T02:30:48.219Z,3.77
2018-09-27T02:33:16.518Z,3.43
2018-09-27T02:35:44.799Z,6.00
2018-09-27T02:38:13.310Z,3.20
2018-09-27T02:40:41.539Z,2.33
2018-09-27T02:43:09.770Z,6.17
2018-09-27T02:45:37.977Z,5.37
2018-09-27T02:48:06.161Z,6.23
2018-09-27T02:50:34.362Z,4.43
2018-09-27T02:53:02.608Z,3.10
2018-09-27T02:55:30.929Z,5.07
2018-09-27T02:57:59.735Z,4.50
2018-09-27T03:00:27.907Z,3.27
2018-09-27T03:02:56.111Z,7.67
2018-09-27T03:05:24.542Z,8.83
2018-09-27T03:07:52.731Z,4.77
2018-09-27T03:10:20.912Z,6.00
2018-09-27T03:12:49.139Z,8.70
2018-09-27T03:15:19.411Z,8.47
2018-09-27T03:17:47.698Z,8.93
2018-09-27T03:20:15.843Z,7.83
2018-09-27T03:22:44.062Z,5.70
2018-09-27T03:25:12.264Z,8.73
2018-09-27T03:27:40.443Z,9.10
2018-09-27T03:30:08.974Z,5.03
2018-09-27T03:32:37.743Z,6.37
2018-09-27T03:35:07.466Z,7.10
2018-09-27T03:37:35.597Z,10.83
2018-09-27T03:40:03.829Z,10.67
2018-09-27T03:42:32.382Z,7.77
2018-09-27T03:45:00.554Z,6.60
2018-09-27T03:47:28.765Z,8.80
2018-09-27T03:49:56.954Z,5.87
2018-09-27T03:52:25.106Z,3.67
2018-09-27T03:54:53.274Z,6.23
2018-09-27T03:57:23.375Z,4.23
2018-09-27T03:59:51.530Z,5.47
2018-09-27T04:02:19.759Z,8.57
2018-09-27T04:04:47.914Z,4.73
2018-09-27T04:07:21.167Z,11.40
2018-09-27T04:09:49.610Z,7.87
2018-09-27T04:12:17.834Z,13.43
2018-09-27T04:14:46.020Z,11.60
2018-09-27T04:17:14.195Z,13.10
2018-09-27T04:19:44.290Z,11.03
2018-09-27T04:22:13.429Z,10.60
2018-09-27T04:24:41.623Z,10.73
2018-09-27T04:27:09.806Z,13.23
2018-09-27T04:29:37.987Z,9.80
2018-09-27T04:32:06.165Z,10.37
2018-09-27T04:34:34.385Z,8.77
2018-09-27T04:37:02.578Z,6.13
2018-09-27T04:39:30.890Z,6.60
2018-09-27T04:41:59.065Z,7.87
2018-09-27T04:44:27.243Z,5.40
2018-09-27T04:46:55.486Z,8.67
2018-09-27T04:49:23.731Z,7.63
2018-09-27T04:51:51.943Z,6.47
2018-09-27T04:54:20.143Z,8.80
2018-09-27T04:56:49.098Z,8.63
2018-09-27T04:59:17.318Z,9.87
2018-09-27T05:01:45.621Z,8.80
2018-09-27T05:04:13.794Z,9.10
2018-09-27T05:06:41.988Z,8.90
2018-09-27T05:09:10.258Z,7.63
2018-09-27T05:11:39.330Z,7.30
2018-09-27T05:14:07.912Z,5.87
2018-09-27T05:16:36.083Z,6.93
2018-09-27T05:19:05.294Z,8.87
2018-09-27T05:21:33.753Z,8.70
2018-09-27T05:24:01.966Z,9.10
2018-09-27T05:26:32.097Z,9.10
2018-09-27T05:29:00.320Z,11.17
2018-09-27T05:31:28.501Z,10.73
2018-09-27T05:33:56.702Z,14.03
2018-09-27T05:36:25.165Z,12.30
2018-09-27T05:38:53.628Z,11.10
2018-09-27T05:41:21.787Z,9.50
2018-09-27T05:43:50.836Z,10.33
2018-09-27T05:46:18.998Z,8.73
2018-09-27T05:48:47.218Z,6.50
2018-09-27T05:51:15.629Z,11.03
2018-09-27T05:53:43.806Z,8.50
2018-09-27T05:56:12.027Z,9.97
2018-09-27T05:58:40.190Z,6.50
2018-09-27T06:01:08.427Z,10.67
2018-09-27T06:03:36.643Z,8.40
2018-09-27T06:06:05.696Z,9.90
2018-09-27T06:08:34.810Z,10.07
2018-09-27T06:11:03.000Z,14.33
2018-09-27T06:13:33.815Z,6.97
2018-09-27T06:16:02.006Z,8.57
2018-09-27T06:18:30.218Z,7.27
2018-09-27T06:20:58.517Z,5.77
2018-09-27T06:23:27.577Z,5.97
2018-09-27T06:25:55.778Z,7.73
2018-09-27T06:28:23.918Z,5.00
2018-09-27T06:30:59.146Z,5.50
2018-09-27T06:33:27.395Z,4.87
2018-09-27T06:35:57.547Z,3.43
2018-09-27T06:38:32.107Z,4.07
2018-09-27T06:41:00.759Z,3.67
2018-09-27T06:43:29.730Z,2.80
2018-09-27T06:45:58.189Z,3.20
2018-09-27T06:48:26.939Z,4.77
2018-09-27T06:50:55.378Z,4.57
2018-09-27T06:53:23.584Z,3.07
2018-09-27T06:55:51.861Z,4.23
2018-09-27T06:58:19.942Z,6.07
2018-09-27T07:00:48.183Z,6.03
2018-09-27T07:03:16.427Z,3.57
2018-09-27T07:05:45.447Z,4.00
2018-09-27T07:08:13.638Z,4.07
2018-09-27T07:10:42.642Z,6.83
2018-09-27T07:13:10.842Z,3.80
2018-09-27T07:15:39.048Z,7.05
2018-09-27T07:18:07.223Z,4.28
2018-09-27T07:20:35.412Z,4.78
2018-09-27T07:23:03.830Z,7.78
2018-09-27T07:25:32.012Z,4.35
2018-09-27T07:28:00.430Z,8.33
2018-09-27T07:30:28.680Z,4.83
2018-09-27T07:32:56.830Z,5.08
2018-09-27T07:38:08.138Z,6.50
2018-09-27T07:40:36.379Z,6.58
2018-09-27T07:43:05.550Z,6.47
2018-09-27T07:45:33.749Z,8.55
2018-09-27T07:48:01.942Z,9.18
2018-09-27T07:50:30.168Z,9.60
2018-09-27T07:52:58.299Z,6.40
2018-09-27T07:55:27.255Z,7.10
2018-09-27T07:57:55.466Z,5.45
2018-09-27T08:00:23.694Z,9.63
2018-09-27T08:02:51.937Z,8.83
2018-09-27T08:05:20.767Z,8.33
2018-09-27T08:07:48.959Z,8.45
2018-09-27T08:10:17.142Z,5.80
2018-09-27T08:12:45.322Z,7.47
2018-09-27T08:15:13.506Z,12.65
2018-09-27T08:17:41.703Z,7.97
2018-09-27T08:20:09.889Z,6.53
2018-09-27T08:22:38.102Z,8.73
2018-09-27T08:25:06.366Z,5.62
2018-09-27T08:27:34.606Z,9.33
2018-09-27T08:30:02.895Z,6.03
2018-09-27T08:32:31.251Z,7.30
2018-09-27T08:34:59.554Z,8.90
2018-09-27T08:37:27.726Z,8.88
2018-09-27T08:39:55.938Z,10.53
2018-09-27T08:42:24.720Z,6.05
2018-09-27T08:44:52.933Z,6.85
2018-09-27T08:47:21.054Z,8.20
2018-09-27T08:49:49.263Z,6.30
2018-09-27T08:52:17.461Z,6.97
2018-09-27T08:54:46.299Z,8.10
2018-09-27T08:57:14.890Z,8.45
2018-09-27T08:59:43.242Z,8.03
2018-09-27T09:02:11.954Z,6.05
2018-09-27T09:04:40.130Z,6.85
2018-09-27T09:07:09.270Z,7.25
2018-09-27T09:09:37.486Z,10.05
2018-09-27T09:12:05.720Z,6.50
2018-09-27T09:14:34.494Z,8.78
2018-09-27T09:17:02.701Z,11.63
2018-09-27T09:19:30.936Z,6.95
2018-09-27T09:21:59.119Z,7.42
2018-09-27T09:24:27.367Z,6.87
2018-09-27T09:26:55.511Z,6.28
2018-09-27T09:29:23.682Z,8.88
2018-09-27T09:31:51.856Z,8.15
2018-09-27T09:34:20.710Z,6.08
2018-09-27T09:36:48.870Z,6.25
2018-09-27T09:39:17.042Z,7.50
2018-09-27T09:41:45.270Z,6.75
2018-09-27T09:44:13.463Z,7.75
2018-09-27T09:46:41.684Z,8.13
2018-09-27T09:49:09.872Z,6.00
2018-09-27T09:51:38.050Z,9.40
2018-09-27T09:54:08.247Z,6.97
2018-09-27T09:56:36.439Z,10.30
2018-09-27T09:59:04.658Z,8.73
2018-09-27T10:01:32.887Z,12.63
2018-09-27T10:04:01.195Z,6.70
2018-09-27T10:06:30.022Z,9.78
2018-09-27T10:08:58.226Z,9.20
2018-09-27T10:11:26.414Z,9.50
2018-09-27T10:14:00.578Z,10.18
2018-09-27T10:16:28.805Z,7.92
2018-09-27T10:18:56.997Z,11.68
2018-09-27T10:21:25.513Z,9.05
2018-09-27T10:23:53.716Z,10.13
2018-09-27T10:26:22.675Z,7.72
2018-09-27T10:28:50.887Z,10.00
2018-09-27T10:31:19.707Z,9.23
2018-09-27T10:33:47.885Z,8.83
2018-09-27T10:36:16.213Z,6.85
2018-09-27T10:38:44.967Z,8.68
2018-09-27T10:41:13.134Z,9.40
2018-09-27T10:43:42.067Z,8.25
2018-09-27T10:46:10.334Z,8.58
2018-09-27T10:48:38.518Z,8.63
2018-09-27T10:51:06.899Z,9.23
2018-09-27T10:53:35.250Z,8.88
2018-09-27T10:56:05.286Z,10.13
2018-09-27T10:58:33.446Z,8.78
2018-09-27T11:01:12.850Z,6.95
2018-09-27T11:03:41.588Z,10.05
2018-09-27T11:06:09.770Z,9.30
2018-09-27T11:08:37.975Z,10.08
2018-09-27T11:11:06.872Z,8.43
2018-09-27T11:13:35.025Z,16.05
2018-09-27T11:16:03.282Z,10.10
2018-09-27T11:18:31.447Z,10.28
2018-09-27T11:20:59.601Z,8.75
2018-09-27T11:23:27.997Z,10.23
2018-09-27T11:25:56.181Z,9.45
2018-09-27T11:28:24.389Z,13.05
2018-09-27T11:30:58.030Z,8.75
2018-09-27T11:33:26.234Z,8.28
2018-09-27T11:35:54.421Z,11.33
2018-09-27T11:38:22.622Z,9.65
2018-09-27T11:40:51.242Z,10.68
2018-09-27T11:43:19.429Z,12.68
2018-09-27T11:45:47.795Z,8.50
2018-09-27T11:48:16.320Z,10.63
2018-09-27T11:50:44.461Z,8.33
2018-09-27T11:53:12.700Z,14.07
2018-09-27T11:55:40.957Z,9.03
2018-09-27T11:58:09.126Z,9.25
2018-09-27T12:00:37.521Z,8.73
2018-09-27T12:03:06.266Z,10.08
2018-09-27T12:05:34.931Z,13.32
2018-09-27T12:08:03.142Z,11.15
2018-09-27T12:10:31.555Z,9.83
2018-09-27T12:13:00.330Z,12.65
2018-09-27T12:15:29.378Z,14.25
2018-09-27T12:18:03.694Z,8.90
2018-09-27T12:20:33.814Z,11.05
2018-09-27T12:23:03.394Z,12.25
2018-09-27T12:25:32.124Z,12.58
2018-09-27T12:28:01.002Z,8.88
2018-09-27T12:30:29.235Z,10.08
2018-09-27T12:32:58.162Z,7.92
2018-09-27T12:35:26.358Z,9.43
2018-09-27T12:37:55.457Z,8.15
2018-09-27T12:40:24.499Z,9.93
2018-09-27T12:42:52.972Z,8.00
2018-09-27T12:45:21.160Z,8.23
2018-09-27T12:47:49.395Z,7.70
2018-09-27T12:50:17.526Z,9.80
2018-09-27T12:52:45.791Z,5.47
2018-09-27T12:55:14.074Z,5.45
2018-09-27T12:57:42.316Z,6.40
2018-09-27T13:00:10.522Z,6.72
2018-09-27T13:02:38.793Z,9.28
2018-09-27T13:05:07.862Z,7.80
2018-09-27T13:07:36.047Z,8.28
2018-09-27T13:10:04.426Z,8.43
2018-09-27T13:12:32.969Z,5.47
2018-09-27T13:15:03.853Z,6.95
2018-09-27T13:17:32.023Z,7.83
2018-09-27T13:20:00.303Z,8.93
2018-09-27T13:22:28.354Z,4.37
2018-09-27T13:24:56.517Z,8.08
2018-09-27T13:27:24.707Z,7.45
2018-09-27T13:29:52.901Z,10.05
2018-09-27T13:32:21.309Z,6.53
2018-09-27T13:34:49.494Z,6.50
2018-09-27T13:37:17.695Z,8.63
2018-09-27T13:39:46.016Z,4.62
2018-09-27T13:42:14.265Z,4.08
2018-09-27T13:44:42.471Z,6.85
2018-09-27T13:47:10.716Z,7.47
2018-09-27T13:49:39.670Z,5.78
2018-09-27T13:52:08.330Z,7.50
2018-09-27T13:54:36.958Z,8.53
2018-09-27T13:57:05.231Z,5.30
2018-09-27T13:59:34.309Z,6.05
2018-09-27T14:02:02.508Z,8.18
2018-09-27T14:04:30.842Z,7.22
2018-09-27T14:06:59.100Z,8.35
2018-09-27T14:09:27.288Z,8.65
2018-09-27T14:11:55.495Z,9.80
2018-09-27T14:14:23.860Z,8.30
2018-09-27T14:16:53.487Z,8.28
2018-09-27T14:19:21.654Z,5.15
2018-09-27T14:21:50.242Z,8.03
2018-09-27T14:24:18.424Z,7.97
2018-09-27T14:26:46.768Z,7.08
2018-09-27T14:29:14.941Z,7.53
2018-09-27T14:31:43.131Z,5.58
2018-09-27T14:34:11.943Z,5.05
2018-09-27T14:36:40.182Z,7.15
2018-09-27T14:39:09.330Z,4.12
2018-09-27T14:41:37.582Z,5.08
2018-09-27T14:44:12.684Z,4.40
2018-09-27T14:46:40.909Z,3.95
2018-09-27T14:49:09.190Z,4.75
2018-09-27T14:51:37.430Z,5.80
2018-09-27T14:54:05.622Z,4.08
2018-09-27T14:56:33.962Z,4.75
2018-09-27T14:59:02.146Z,4.67
2018-09-27T15:01:30.303Z,5.75
2018-09-27T15:03:58.482Z,6.47
2018-09-27T15:06:26.894Z,5.75
2018-09-27T15:08:55.095Z,4.45
2018-09-27T15:11:23.278Z,3.92
2018-09-27T15:13:51.502Z,3.17
2018-09-27T15:16:20.488Z,3.25
2018-09-27T15:18:48.634Z,4.33
2018-09-27T15:21:16.833Z,4.10
2018-09-27T15:23:45.780Z,4.17
2018-09-27T15:26:13.959Z,4.37
2018-09-27T15:28:42.141Z,2.95
2018-09-27T15:31:10.377Z,2.85
2018-09-27T15:33:40.734Z,4.35
2018-09-27T15:36:08.922Z,4.12
2018-09-27T15:38:37.133Z,5.42
2018-09-27T15:41:05.382Z,3.20
2018-09-27T15:43:33.680Z,3.30
2018-09-27T15:46:01.877Z,2.37
2018-09-27T15:48:31.950Z,4.25
2018-09-27T15:51:00.638Z,3.15
2018-09-27T15:53:28.896Z,3.15
2018-09-27T15:55:57.086Z,4.40
2018-09-27T15:58:25.292Z,2.20
2018-09-27T16:00:53.498Z,3.00
2018-09-27T16:03:21.722Z,2.30
2018-09-27T16:05:49.927Z,3.52
2018-09-27T16:08:18.528Z,5.92
2018-09-27T16:10:46.758Z,3.45
2018-09-27T16:13:14.935Z,3.90
2018-09-27T16:15:43.603Z,3.77
2018-09-27T16:18:11.743Z,6.12
2018-09-27T16:20:40.705Z,3.77
2018-09-27T16:23:09.310Z,3.70
2018-09-27T16:25:37.470Z,6.55
2018-09-27T16:28:05.629Z,4.20
2018-09-27T16:30:33.804Z,6.00
2018-09-27T16:33:01.970Z,3.05
2018-09-27T16:35:30.279Z,4.45
2018-09-27T16:37:59.098Z,3.70
2018-09-27T16:40:27.299Z,6.45
2018-09-27T16:42:55.419Z,2.90
2018-09-27T16:45:24.027Z,4.65
2018-09-27T16:47:52.435Z,5.53
2018-09-27T16:50:20.584Z,4.72
2018-09-27T16:52:48.742Z,2.60
2018-09-27T16:55:16.971Z,5.85
2018-09-27T16:57:45.263Z,4.35
2018-09-27T17:00:13.443Z,6.00
2018-09-27T17:02:41.915Z,3.17
2018-09-27T17:05:10.046Z,4.17
2018-09-27T17:07:38.225Z,3.70
2018-09-27T17:10:06.602Z,2.43
2018-09-27T17:12:34.973Z,2.80
2018-09-27T17:15:03.157Z,4.43
2018-09-27T17:17:32.305Z,5.23
2018-09-27T17:20:01.167Z,4.10
2018-09-27T17:22:29.378Z,2.47
2018-09-27T17:24:58.188Z,5.50
2018-09-27T17:27:26.766Z,4.20
2018-09-27T17:29:54.982Z,7.07
2018-09-27T17:32:23.179Z,5.10
2018-09-27T17:34:51.382Z,4.97
2018-09-27T17:37:20.262Z,4.13
2018-09-27T17:39:48.707Z,5.07
2018-09-27T17:42:16.921Z,7.43
2018-09-27T17:44:45.936Z,5.90
2018-09-27T17:47:14.447Z,3.70
2018-09-27T17:49:42.657Z,4.77
2018-09-27T17:52:10.806Z,8.77
2018-09-27T17:54:46.038Z,6.97
2018-09-27T17:57:17.728Z,8.77
2018-09-27T17:59:45.911Z,7.43
2018-09-27T18:02:14.106Z,7.20
2018-09-27T18:04:42.795Z,6.27
2018-09-27T18:07:10.853Z,6.13
2018-09-27T18:09:39.036Z,5.60
2018-09-27T18:12:07.518Z,6.57
2018-09-27T18:14:35.943Z,8.70
2018-09-27T18:17:04.155Z,3.43
2018-09-27T18:19:32.518Z,5.87
2018-09-27T18:22:00.657Z,8.93
2018-09-27T18:24:29.302Z,8.33
2018-09-27T18:26:57.517Z,5.90
2018-09-27T18:29:25.722Z,5.67
2018-09-27T18:31:53.951Z,8.57
2018-09-27T18:34:22.120Z,5.13
2018-09-27T18:36:50.298Z,6.40
2018-09-27T18:39:18.474Z,6.33
2018-09-27T18:41:46.663Z,4.50
2018-09-27T18:44:14.854Z,7.27
2018-09-27T18:46:43.076Z,5.27
2018-09-27T18:49:11.499Z,6.73
2018-09-27T18:51:40.928Z,4.20
2018-09-27T18:54:09.174Z,7.90
2018-09-27T18:56:37.882Z,6.17
2018-09-27T18:59:06.197Z,9.13
2018-09-27T19:01:34.395Z,6.77
2018-09-27T19:04:02.574Z,8.30
2018-09-27T19:06:30.865Z,10.23
2018-09-27T19:08:59.167Z,7.27
2018-09-27T19:11:27.386Z,11.67
2018-09-27T19:13:55.622Z,10.03
2018-09-27T19:16:23.806Z,9.63
2018-09-27T19:18:52.920Z,7.87
2018-09-27T19:21:21.098Z,10.40
2018-09-27T19:23:49.270Z,9.63
2018-09-27T19:26:17.442Z,9.63
2018-09-27T19:28:45.698Z,10.53
2018-09-27T19:31:13.960Z,11.43
2018-09-27T19:33:42.438Z,7.47
2018-09-27T19:36:10.608Z,10.50
2018-09-27T19:38:38.778Z,11.27
2018-09-27T19:41:06.993Z,10.63
2018-09-27T19:43:35.163Z,8.67
2018-09-27T19:46:04.226Z,8.37
2018-09-27T19:48:32.715Z,9.57
2018-09-27T19:51:01.254Z,9.13
2018-09-27T19:53:30.207Z,7.50
2018-09-27T19:55:58.506Z,8.00
2018-09-27T19:58:27.257Z,8.27
2018-09-27T20:00:55.398Z,10.13
2018-09-27T20:03:25.544Z,10.40
2018-09-27T20:05:53.731Z,8.20
2018-09-27T20:08:22.306Z,10.67
2018-09-27T20:10:56.894Z,11.47
2018-09-27T20:13:26.891Z,10.63
2018-09-27T20:15:56.598Z,13.40
2018-09-27T20:18:25.238Z,10.40
2018-09-27T20:20:53.483Z,8.93
2018-09-27T20:23:21.678Z,13.33
2018-09-27T20:25:49.906Z,10.27
2018-09-27T20:28:18.109Z,9.27
2018-09-27T20:30:46.425Z,8.27
2018-09-27T20:33:15.345Z,9.27
2018-09-27T20:35:44.044Z,8.47
2018-09-27T20:38:12.192Z,8.60
2018-09-27T20:40:41.106Z,8.00
2018-09-27T20:43:09.256Z,10.33
2018-09-27T20:45:37.442Z,9.47
2018-09-27T20:48:05.636Z,8.63
2018-09-27T20:50:33.866Z,10.10
2018-09-27T20:53:02.098Z,8.33
2018-09-27T20:55:32.001Z,9.77
2018-09-27T20:58:00.702Z,6.70
2018-09-27T21:00:29.003Z,9.63
2018-09-27T21:02:58.041Z,10.43
2018-09-27T21:05:26.217Z,9.60
2018-09-27T21:07:54.386Z,6.27
2018-09-27T21:10:22.556Z,11.70
2018-09-27T21:12:50.930Z,7.00
2018-09-27T21:15:19.122Z,9.30
2018-09-27T21:17:48.276Z,9.07
2018-09-27T21:20:16.686Z,8.43
2018-09-27T21:22:44.862Z,8.23
2018-09-27T21:25:13.395Z,8.07
2018-09-27T21:27:43.070Z,7.00
2018-09-27T21:30:11.279Z,12.17
2018-09-27T21:32:40.393Z,7.40
2018-09-27T21:35:08.601Z,11.90
2018-09-27T21:37:36.782Z,7.27
2018-09-27T21:40:05.439Z,11.37
2018-09-27T21:42:33.659Z,8.23
2018-09-27T21:45:02.539Z,11.00
2018-09-27T21:47:30.710Z,6.37
2018-09-27T21:49:58.998Z,7.43
2018-09-27T21:52:27.062Z,9.87
2018-09-27T21:54:55.370Z,7.13
2018-09-27T21:57:24.981Z,7.43
2018-09-27T21:59:54.638Z,10.07
2018-09-27T22:02:22.823Z,12.77
2018-09-27T22:04:51.057Z,8.30
2018-09-27T22:07:19.235Z,10.00
2018-09-27T22:09:47.522Z,8.97
2018-09-27T22:12:15.744Z,10.53
2018-09-27T22:14:43.929Z,8.93
2018-09-27T22:17:12.835Z,8.63
2018-09-27T22:19:41.194Z,8.67
2018-09-27T22:22:09.373Z,12.13
2018-09-27T22:24:37.569Z,11.43
2018-09-27T22:27:05.810Z,9.67
2018-09-27T22:29:33.977Z,15.37
2018-09-27T22:32:02.170Z,9.53
2018-09-27T22:34:37.206Z,10.70
2018-09-27T22:37:05.446Z,8.10
2018-09-27T22:39:33.594Z,11.03
2018-09-27T22:42:03.055Z,8.03
2018-09-27T22:44:31.314Z,6.47
2018-09-27T22:46:59.793Z,6.90
2018-09-27T22:49:29.106Z,6.17
2018-09-27T22:51:57.314Z,6.33
2018-09-27T22:54:25.487Z,9.00
2018-09-27T22:56:53.886Z,7.80
2018-09-27T22:59:22.878Z,7.13
2018-09-27T23:01:54.578Z,9.43
2018-09-27T23:04:23.082Z,8.13
2018-09-27T23:06:51.235Z,9.97
2018-09-27T23:09:20.571Z,10.53
2018-09-27T23:11:48.926Z,7.43
2018-09-27T23:14:17.122Z,8.43
2018-09-27T23:16:45.332Z,7.87
2018-09-27T23:19:13.510Z,8.80
2018-09-27T23:21:41.717Z,6.33
2018-09-27T23:24:09.902Z,6.40
2018-09-27T23:26:38.122Z,11.27
2018-09-27T23:29:06.290Z,8.27
2018-09-27T23:31:34.471Z,10.33
2018-09-27T23:34:02.686Z,9.60
2018-09-27T23:36:30.929Z,11.57
2018-09-27T23:38:59.206Z,8.07
2018-09-27T23:41:27.370Z,7.47
2018-09-27T23:43:55.560Z,12.50
2018-09-27T23:46:23.717Z,13.70
2018-09-27T23:48:51.894Z,10.23
2018-09-27T23:51:20.098Z,11.63
2018-09-27T23:53:55.090Z,7.50
2018-09-27T23:56:25.053Z,8.33
2018-09-27T23:58:53.264Z,9.97
